createdAt,value
2019-05-19T00:04:05.651Z,6.60
2019-05-19T00:08:59.001Z,6.87
2019-05-19T00:13:52.339Z,8.67
2019-05-19T00:18:45.663Z,7.33
2019-05-19T00:23:39.002Z,8.20
2019-05-19T00:28:33.138Z,8.77
2019-05-19T00:33:26.498Z,8.70
2019-05-19T00:38:19.881Z,8.70
2019-05-19T00:43:13.248Z,8.53
2019-05-19T00:48:06.620Z,9.03
2019-05-19T00:52:59.950Z,8.67
2019-05-19T00:57:54.311Z,9.40
2019-05-19T01:02:47.664Z,8.20
2019-05-19T01:07:41.096Z,7.77
2019-05-19T01:12:34.454Z,10.80
2019-05-19T01:17:28.141Z,10.97
2019-05-19T01:22:21.491Z,10.20
2019-05-19T01:27:14.832Z,12.17
2019-05-19T01:32:08.829Z,9.90
2019-05-19T01:37:02.276Z,13.43
2019-05-19T01:41:55.632Z,12.27
2019-05-19T01:46:48.957Z,14.47
2019-05-19T01:51:42.281Z,11.27
2019-05-19T01:56:35.791Z,13.47
2019-05-19T02:01:29.137Z,11.90
2019-05-19T02:06:22.539Z,13.93
2019-05-19T02:11:15.895Z,15.30
2019-05-19T02:16:09.296Z,15.57
2019-05-19T02:21:03.174Z,13.37
2019-05-19T02:25:56.689Z,13.87
2019-05-19T02:30:50.024Z,10.50
2019-05-19T02:35:43.357Z,14.13
2019-05-19T02:40:38.280Z,14.77
2019-05-19T02:45:31.617Z,17.57
2019-05-19T02:50:24.972Z,18.27
2019-05-19T02:55:18.316Z,16.17
2019-05-19T03:00:12.073Z,16.77
2019-05-19T03:05:05.413Z,17.97
2019-05-19T03:09:58.759Z,19.03
2019-05-19T03:14:52.322Z,17.67
2019-05-19T03:19:45.736Z,19.03
2019-05-19T03:24:39.529Z,18.63
2019-05-19T03:29:36.027Z,17.57
2019-05-19T03:34:29.377Z,16.73
2019-05-19T03:39:22.678Z,13.97
2019-05-19T03:44:16.034Z,21.40
2019-05-19T03:49:09.696Z,19.87
2019-05-19T03:54:03.514Z,19.20
2019-05-19T03:58:57.028Z,21.20
2019-05-19T04:03:50.389Z,19.77
2019-05-19T04:08:43.782Z,15.90
2019-05-19T04:13:37.471Z,17.37
2019-05-19T04:18:30.905Z,18.20
2019-05-19T04:23:24.460Z,18.57
2019-05-19T04:28:19.328Z,17.60
2019-05-19T04:33:13.069Z,17.57
2019-05-19T04:38:06.821Z,17.23
2019-05-19T04:43:00.185Z,17.97
2019-05-19T04:47:54.453Z,17.00
2019-05-19T04:52:47.785Z,17.67
2019-05-19T04:57:41.266Z,16.43
2019-05-19T05:02:34.961Z,17.00
2019-05-19T05:07:28.330Z,15.80
2019-05-19T05:12:21.700Z,15.97
2019-05-19T05:17:15.367Z,15.70
2019-05-19T05:22:21.320Z,15.50
2019-05-19T05:27:02.790Z,14.77
2019-05-19T05:31:56.123Z,14.93
2019-05-19T05:36:49.535Z,14.33
2019-05-19T05:41:42.878Z,14.70
2019-05-19T05:46:36.209Z,16.23
2019-05-19T05:51:29.558Z,14.80
2019-05-19T05:56:22.906Z,15.40
2019-05-19T06:01:16.449Z,15.37
2019-05-19T06:06:09.801Z,15.43
2019-05-19T06:11:03.584Z,14.13
2019-05-19T06:15:57.163Z,13.77
2019-05-19T06:20:50.518Z,13.60
2019-05-19T06:25:43.922Z,17.40
2019-05-19T06:30:37.283Z,15.47
2019-05-19T06:35:30.643Z,16.10
2019-05-19T06:40:23.974Z,16.90
2019-05-19T06:45:17.445Z,16.63
2019-05-19T06:50:10.784Z,17.33
2019-05-19T06:55:04.238Z,17.10
2019-05-19T06:59:57.577Z,17.73
2019-05-19T07:04:50.943Z,17.17
2019-05-19T07:09:57.439Z,17.23
2019-05-19T07:14:37.614Z,16.30
2019-05-19T07:19:30.973Z,15.83
2019-05-19T07:24:24.308Z,17.07
2019-05-19T07:29:17.811Z,12.90
2019-05-19T07:34:11.176Z,16.10
2019-05-19T07:39:05.977Z,16.63
2019-05-19T07:43:59.326Z,15.80
2019-05-19T07:48:52.895Z,15.83
2019-05-19T07:53:46.257Z,16.00
2019-05-19T07:58:39.661Z,14.00
2019-05-19T08:03:33.014Z,15.60
2019-05-19T08:08:26.431Z,9.43
2019-05-19T08:13:19.790Z,8.30
2019-05-19T08:18:13.167Z,7.10
2019-05-19T08:23:06.510Z,7.23
2019-05-19T08:28:08.655Z,7.33
2019-05-19T08:32:53.212Z,7.43
2019-05-19T08:37:46.733Z,13.37
2019-05-19T08:42:40.100Z,15.20
2019-05-19T08:47:33.877Z,15.73
2019-05-19T08:52:27.235Z,14.57
2019-05-19T08:57:20.620Z,17.83
2019-05-19T09:02:13.970Z,19.67
2019-05-19T09:07:07.591Z,23.10
2019-05-19T09:12:01.013Z,25.17
2019-05-19T09:16:55.349Z,23.50
2019-05-19T09:21:48.695Z,27.07
2019-05-19T09:26:42.333Z,26.53
2019-05-19T09:31:35.698Z,27.93
2019-05-19T09:36:29.041Z,24.57
2019-05-19T09:41:22.379Z,24.00
2019-05-19T09:46:15.858Z,26.47
2019-05-19T09:51:09.205Z,25.13
2019-05-19T09:56:02.632Z,25.43
2019-05-19T10:00:56.005Z,27.27
2019-05-19T10:05:49.670Z,26.70
2019-05-19T10:10:50.863Z,27.77
2019-05-19T10:15:44.205Z,26.17
2019-05-19T10:20:37.574Z,27.33
2019-05-19T10:25:31.194Z,23.57
2019-05-19T10:30:24.522Z,25.07
2019-05-19T10:35:18.153Z,25.27
2019-05-19T10:40:11.472Z,25.73
2019-05-19T10:45:05.437Z,24.23
2019-05-19T10:49:58.770Z,23.77
2019-05-19T10:54:52.552Z,24.20
2019-05-19T10:59:45.892Z,22.83
2019-05-19T11:04:39.615Z,22.67
2019-05-19T11:09:32.862Z,20.17
2019-05-19T11:14:26.180Z,19.87
2019-05-19T11:19:19.824Z,17.83
2019-05-19T11:24:13.170Z,17.73
2019-05-19T11:29:06.633Z,18.67
2019-05-19T11:33:59.949Z,20.40
2019-05-19T11:38:53.384Z,19.17
2019-05-19T11:43:46.698Z,16.20
2019-05-19T11:48:40.194Z,18.00
2019-05-19T11:53:33.561Z,15.97
2019-05-19T11:58:26.920Z,15.00
2019-05-19T12:03:20.511Z,14.70
2019-05-19T12:08:13.994Z,16.13
2019-05-19T12:13:07.298Z,17.00
2019-05-19T12:18:00.746Z,15.40
2019-05-19T12:22:54.088Z,14.63
2019-05-19T12:27:47.486Z,14.90
2019-05-19T12:32:40.804Z,15.40
2019-05-19T12:37:34.245Z,14.90
2019-05-19T12:42:27.603Z,16.83
2019-05-19T12:47:21.247Z,14.83
2019-05-19T12:52:14.580Z,14.50
2019-05-19T12:57:08.088Z,13.83
2019-05-19T13:02:01.454Z,15.37
2019-05-19T13:06:54.822Z,15.63
2019-05-19T13:11:48.184Z,18.10
2019-05-19T13:16:41.582Z,19.33
2019-05-19T13:21:34.924Z,19.40
2019-05-19T13:26:28.346Z,18.70
2019-05-19T13:31:21.778Z,18.47
2019-05-19T13:36:15.403Z,17.43
2019-05-19T13:41:08.752Z,18.67
2019-05-19T13:46:02.221Z,19.37
2019-05-19T13:50:55.582Z,18.27
2019-05-19T13:55:48.937Z,20.80
2019-05-19T14:00:42.303Z,17.90
2019-05-19T14:05:35.748Z,20.07
2019-05-19T14:10:29.085Z,17.50
2019-05-19T14:15:22.538Z,17.63
2019-05-19T14:20:16.067Z,18.23
2019-05-19T14:25:09.894Z,17.73
2019-05-19T14:30:03.774Z,18.77
2019-05-19T14:34:57.112Z,19.80
2019-05-19T14:39:50.552Z,19.63
2019-05-19T14:44:43.903Z,20.50
2019-05-19T14:49:37.227Z,21.40
2019-05-19T14:54:30.583Z,20.23
2019-05-19T14:59:24.098Z,21.00
2019-05-19T15:04:17.677Z,14.60
2019-05-19T15:09:11.175Z,12.13
2019-05-19T15:14:04.536Z,10.27
2019-05-19T15:18:57.936Z,10.00
2019-05-19T15:23:51.249Z,9.37
2019-05-19T15:28:44.670Z,8.90
2019-05-19T15:33:38.875Z,9.07
2019-05-19T15:38:31.462Z,7.83
2019-05-19T15:43:24.665Z,7.97
2019-05-19T15:48:18.169Z,7.50
2019-05-19T15:53:11.480Z,7.33
2019-05-19T15:58:16.005Z,7.00
2019-05-19T16:02:58.279Z,7.53
2019-05-19T16:07:51.701Z,7.37
2019-05-19T16:12:44.999Z,9.83
2019-05-19T16:17:38.473Z,11.97
2019-05-19T16:22:32.691Z,11.80
2019-05-19T16:27:26.293Z,12.43
2019-05-19T16:32:19.620Z,12.90
2019-05-19T16:37:12.986Z,12.00
2019-05-19T16:42:06.411Z,12.10
2019-05-19T16:46:59.782Z,12.83
2019-05-19T16:51:53.142Z,13.57
2019-05-19T16:56:46.499Z,13.13
2019-05-19T17:01:39.861Z,12.50
2019-05-19T17:06:33.206Z,13.83
2019-05-19T17:11:26.574Z,13.50
2019-05-19T17:16:20.190Z,12.20
2019-05-19T17:21:13.635Z,12.93
2019-05-19T17:26:07.004Z,11.83
2019-05-19T17:31:00.365Z,12.17
2019-05-19T17:35:53.746Z,11.07
2019-05-19T17:40:47.091Z,11.07
2019-05-19T17:45:40.541Z,11.17
2019-05-19T17:50:33.933Z,10.47
2019-05-19T17:55:27.411Z,11.00
2019-05-19T18:00:22.459Z,11.00
2019-05-19T18:05:15.806Z,11.30
2019-05-19T18:10:09.126Z,10.93
2019-05-19T18:15:03.527Z,10.58
2019-05-19T18:19:56.669Z,10.10
2019-05-19T18:24:50.048Z,10.17
2019-05-19T18:29:43.481Z,10.60
2019-05-19T18:34:36.847Z,10.83
2019-05-19T18:39:30.319Z,10.57
2019-05-19T18:44:23.693Z,10.73
2019-05-19T18:49:17.050Z,10.93
2019-05-19T18:54:10.411Z,10.53
2019-05-19T18:59:03.789Z,10.47
2019-05-19T19:03:57.376Z,10.30
2019-05-19T19:08:50.771Z,10.70
2019-05-19T19:13:44.095Z,12.00
2019-05-19T19:18:37.596Z,11.70
2019-05-19T19:23:30.965Z,10.83
2019-05-19T19:28:24.564Z,10.47
2019-05-19T19:33:17.954Z,10.20
2019-05-19T19:38:11.343Z,10.37
2019-05-19T19:43:04.823Z,10.10
2019-05-19T19:47:58.187Z,10.67
2019-05-19T19:52:51.563Z,8.83
2019-05-19T19:57:45.147Z,9.13
2019-05-19T20:02:38.499Z,9.83
2019-05-19T20:07:32.812Z,8.27
2019-05-19T20:12:26.179Z,8.13
2019-05-19T20:17:19.526Z,9.17
2019-05-19T20:22:12.947Z,8.40
2019-05-19T20:27:06.303Z,7.60
2019-05-19T20:31:59.660Z,8.17
2019-05-19T20:36:53.000Z,6.57
2019-05-19T20:41:46.346Z,7.23
2019-05-19T20:46:39.850Z,7.33
2019-05-19T20:51:33.610Z,6.63
2019-05-19T20:56:27.209Z,6.70
2019-05-19T21:01:20.568Z,7.30
2019-05-19T21:06:13.965Z,6.90
2019-05-19T21:11:07.319Z,7.60
2019-05-19T21:16:01.031Z,7.27
2019-05-19T21:20:54.340Z,6.60
2019-05-19T21:25:47.783Z,6.83
2019-05-19T21:30:41.108Z,6.70
2019-05-19T21:35:34.417Z,6.43
2019-05-19T21:40:27.756Z,6.77
2019-05-19T21:45:21.314Z,6.27
2019-05-19T21:50:14.614Z,6.00
2019-05-19T21:55:08.051Z,7.60
2019-05-19T22:00:01.364Z,6.57
2019-05-19T22:04:54.693Z,6.03
2019-05-19T22:09:48.010Z,6.30
2019-05-19T22:14:41.310Z,6.50
2019-05-19T22:19:34.653Z,6.40
2019-05-19T22:24:27.955Z,7.33
2019-05-19T22:29:21.413Z,6.33
2019-05-19T22:34:15.197Z,5.90
2019-05-19T22:39:08.779Z,6.37
2019-05-19T22:44:02.471Z,5.83
2019-05-19T22:48:55.815Z,5.90
2019-05-19T22:53:49.151Z,6.27
2019-05-19T22:58:42.592Z,6.03
2019-05-19T23:03:36.032Z,5.93
2019-05-19T23:08:29.377Z,6.13
2019-05-19T23:13:22.713Z,5.30
2019-05-19T23:18:16.121Z,5.77
2019-05-19T23:23:09.446Z,5.90
2019-05-19T23:28:03.942Z,5.80
2019-05-19T23:32:57.303Z,5.67
2019-05-19T23:37:50.618Z,5.87
2019-05-19T23:42:43.956Z,5.50
2019-05-19T23:47:37.308Z,6.03
2019-05-19T23:52:30.663Z,6.90
2019-05-19T23:57:24.071Z,6.40
